createdAt,value
2018-04-24T00:00:10.269Z,64
2018-04-24T00:00:22.698Z,64
2018-04-24T00:00:35.137Z,64
2018-04-24T00:00:47.618Z,64
2018-04-24T00:01:00.047Z,64
2018-04-24T00:01:12.478Z,64
2018-04-24T00:01:24.902Z,64
2018-04-24T00:01:37.397Z,64
2018-04-24T00:01:49.817Z,64
2018-04-24T00:02:02.261Z,64
2018-04-24T00:02:14.752Z,64
2018-04-24T00:02:27.152Z,64
2018-04-24T00:02:39.558Z,64
2018-04-24T00:02:51.980Z,64
2018-04-24T00:03:04.405Z,64
2018-04-24T00:03:16.811Z,64
2018-04-24T00:03:29.229Z,64
2018-04-24T00:03:41.651Z,64
2018-04-24T00:03:54.080Z,64
2018-04-24T00:04:06.512Z,64
2018-04-24T00:04:19.001Z,64
2018-04-24T00:04:31.420Z,64
2018-04-24T00:04:43.826Z,64
2018-04-24T00:04:56.232Z,64
2018-04-24T00:05:08.634Z,64
2018-04-24T00:05:21.051Z,64
2018-04-24T00:05:33.475Z,64
2018-04-24T00:05:45.868Z,64
2018-04-24T00:05:58.267Z,64
2018-04-24T00:06:10.764Z,64
2018-04-24T00:06:23.161Z,64
2018-04-24T00:06:35.597Z,64
2018-04-24T00:06:48.014Z,64
2018-04-24T00:07:00.430Z,65
2018-04-24T00:07:12.991Z,65
2018-04-24T00:07:25.407Z,65
2018-04-24T00:07:37.802Z,65
2018-04-24T00:07:50.207Z,65
2018-04-24T00:08:02.620Z,65
2018-04-24T00:08:15.054Z,65
2018-04-24T00:08:27.460Z,65
2018-04-24T00:08:39.910Z,65
2018-04-24T00:08:52.364Z,65
2018-04-24T00:09:04.781Z,65
2018-04-24T00:09:17.196Z,65
2018-04-24T00:09:29.614Z,65
2018-04-24T00:09:42.045Z,65
2018-04-24T00:09:55.212Z,65
2018-04-24T00:10:07.875Z,65
2018-04-24T00:10:20.282Z,65
2018-04-24T00:10:32.753Z,65
2018-04-24T00:10:45.154Z,65
2018-04-24T00:10:57.612Z,65
2018-04-24T00:11:10.026Z,65
2018-04-24T00:11:22.442Z,65
2018-04-24T00:11:34.853Z,65
2018-04-24T00:11:47.282Z,65
2018-04-24T00:11:59.710Z,65
2018-04-24T00:12:12.385Z,65
2018-04-24T00:12:24.795Z,65
2018-04-24T00:12:37.211Z,65
2018-04-24T00:12:49.637Z,65
2018-04-24T00:13:02.062Z,65
2018-04-24T00:13:14.476Z,65
2018-04-24T00:13:26.889Z,65
2018-04-24T00:13:39.445Z,65
2018-04-24T00:13:51.860Z,65
2018-04-24T00:14:04.298Z,65
2018-04-24T00:14:16.716Z,65
2018-04-24T00:14:29.125Z,65
2018-04-24T00:14:41.529Z,65
2018-04-24T00:14:53.948Z,65
2018-04-24T00:15:06.350Z,65
2018-04-24T00:15:18.825Z,65
2018-04-24T00:15:31.244Z,65
2018-04-24T00:15:43.652Z,65
2018-04-24T00:15:56.072Z,65
2018-04-24T00:16:08.463Z,65
2018-04-24T00:16:20.923Z,65
2018-04-24T00:16:33.355Z,65
2018-04-24T00:16:45.797Z,65
2018-04-24T00:16:58.200Z,65
2018-04-24T00:17:10.623Z,65
2018-04-24T00:17:23.115Z,65
2018-04-24T00:17:35.529Z,65
2018-04-24T00:17:47.928Z,65
2018-04-24T00:18:00.387Z,65
2018-04-24T00:18:13.021Z,65
2018-04-24T00:18:26.703Z,65
2018-04-24T00:18:39.123Z,65
2018-04-24T00:18:51.566Z,65
2018-04-24T00:19:03.967Z,65
2018-04-24T00:19:16.365Z,65
2018-04-24T00:19:28.778Z,65
2018-04-24T00:19:41.211Z,66
2018-04-24T00:19:53.638Z,66
2018-04-24T00:20:06.052Z,66
2018-04-24T00:20:18.571Z,66
2018-04-24T00:20:30.997Z,66
2018-04-24T00:20:43.428Z,66
2018-04-24T00:20:55.832Z,66
2018-04-24T00:21:08.251Z,66
2018-04-24T00:21:20.691Z,66
2018-04-24T00:21:33.115Z,66
2018-04-24T00:21:45.549Z,66
2018-04-24T00:21:57.951Z,66
2018-04-24T00:22:10.420Z,66
2018-04-24T00:22:22.819Z,66
2018-04-24T00:22:35.216Z,66
2018-04-24T00:22:47.718Z,66
2018-04-24T00:23:00.150Z,66
2018-04-24T00:23:12.549Z,66
2018-04-24T00:23:24.969Z,66
2018-04-24T00:23:37.428Z,66
2018-04-24T00:23:49.833Z,66
2018-04-24T00:24:02.277Z,66
2018-04-24T00:24:14.683Z,66
2018-04-24T00:24:27.093Z,66
2018-04-24T00:24:39.491Z,66
2018-04-24T00:24:51.902Z,66
2018-04-24T00:25:04.301Z,66
2018-04-24T00:25:16.716Z,66
2018-04-24T00:25:29.120Z,66
2018-04-24T00:25:41.518Z,66
2018-04-24T00:25:53.938Z,66
2018-04-24T00:26:06.755Z,66
2018-04-24T00:26:19.636Z,66
2018-04-24T00:26:32.043Z,66
2018-04-24T00:26:44.444Z,66
2018-04-24T00:26:56.838Z,66
2018-04-24T00:27:09.247Z,66
2018-04-24T00:27:21.675Z,66
2018-04-24T00:27:34.068Z,66
2018-04-24T00:27:46.568Z,66
2018-04-24T00:27:58.971Z,66
2018-04-24T00:28:11.408Z,66
2018-04-24T00:28:23.814Z,66
2018-04-24T00:28:36.275Z,66
2018-04-24T00:28:48.680Z,66
2018-04-24T00:29:01.102Z,66
2018-04-24T00:29:13.590Z,66
2018-04-24T00:29:25.987Z,66
2018-04-24T00:29:38.413Z,66
2018-04-24T00:29:50.837Z,66
2018-04-24T00:30:03.244Z,66
2018-04-24T00:30:15.643Z,66
2018-04-24T00:30:28.186Z,66
2018-04-24T00:30:40.599Z,66
2018-04-24T00:30:53.255Z,66
2018-04-24T00:31:05.696Z,66
2018-04-24T00:31:18.094Z,66
2018-04-24T00:31:30.485Z,66
2018-04-24T00:31:42.887Z,67
2018-04-24T00:31:55.324Z,67
2018-04-24T00:32:07.741Z,67
2018-04-24T00:32:20.240Z,67
2018-04-24T00:32:32.654Z,67
2018-04-24T00:32:45.076Z,67
2018-04-24T00:32:57.479Z,67
2018-04-24T00:33:09.900Z,67
2018-04-24T00:33:22.356Z,67
2018-04-24T00:33:34.784Z,67
2018-04-24T00:33:47.209Z,67
2018-04-24T00:33:59.648Z,67
2018-04-24T00:34:12.121Z,67
2018-04-24T00:34:24.959Z,67
2018-04-24T00:34:37.728Z,67
2018-04-24T00:34:50.190Z,67
2018-04-24T00:35:02.617Z,67
2018-04-24T00:35:15.042Z,67
2018-04-24T00:35:27.443Z,67
2018-04-24T00:35:39.851Z,67
2018-04-24T00:35:52.257Z,67
2018-04-24T00:36:04.721Z,67
2018-04-24T00:36:17.143Z,67
2018-04-24T00:36:29.532Z,67
2018-04-24T00:36:41.939Z,67
2018-04-24T00:36:54.347Z,67
2018-04-24T00:37:06.762Z,67
2018-04-24T00:37:19.181Z,67
2018-04-24T00:37:31.591Z,67
2018-04-24T00:37:44.004Z,67
2018-04-24T00:37:56.447Z,67
2018-04-24T00:38:08.850Z,67
2018-04-24T00:38:21.245Z,67
2018-04-24T00:38:33.633Z,67
2018-04-24T00:38:46.030Z,67
2018-04-24T00:38:58.417Z,67
2018-04-24T00:39:10.904Z,67
2018-04-24T00:39:23.313Z,67
2018-04-24T00:39:35.727Z,67
2018-04-24T00:39:48.215Z,67
2018-04-24T00:40:00.677Z,67
2018-04-24T00:40:13.122Z,67
2018-04-24T00:40:25.519Z,67
2018-04-24T00:40:37.927Z,67
2018-04-24T00:40:50.336Z,67
2018-04-24T00:41:02.822Z,67
2018-04-24T00:41:15.245Z,67
2018-04-24T00:41:27.661Z,67
2018-04-24T00:41:40.078Z,67
2018-04-24T00:41:52.477Z,67
2018-04-24T00:42:04.872Z,67
2018-04-24T00:42:17.421Z,67
2018-04-24T00:42:29.852Z,67
2018-04-24T00:42:42.307Z,67
2018-04-24T00:42:54.722Z,67
2018-04-24T00:43:07.125Z,67
2018-04-24T00:43:19.623Z,67
2018-04-24T00:43:32.032Z,67
2018-04-24T00:43:44.445Z,67
2018-04-24T00:43:56.865Z,67
2018-04-24T00:44:09.263Z,67
2018-04-24T00:44:21.675Z,67
2018-04-24T00:44:34.235Z,67
2018-04-24T00:44:46.639Z,67
2018-04-24T00:44:59.048Z,67
2018-04-24T00:45:11.476Z,67
2018-04-24T00:45:23.880Z,68
2018-04-24T00:45:36.297Z,68
2018-04-24T00:45:49.214Z,68
2018-04-24T00:46:02.448Z,68
2018-04-24T00:46:14.925Z,67
2018-04-24T00:46:27.324Z,67
2018-04-24T00:46:39.741Z,67
2018-04-24T00:46:52.137Z,67
2018-04-24T00:47:04.543Z,67
2018-04-24T00:47:16.966Z,67
2018-04-24T00:47:29.367Z,67
2018-04-24T00:47:41.785Z,67
2018-04-24T00:47:54.210Z,68
2018-04-24T00:48:06.734Z,68
2018-04-24T00:48:19.135Z,68
2018-04-24T00:48:31.548Z,68
2018-04-24T00:48:43.944Z,68
2018-04-24T00:48:56.356Z,68
2018-04-24T00:49:08.769Z,68
2018-04-24T00:49:21.179Z,68
2018-04-24T00:49:33.635Z,68
2018-04-24T00:49:46.053Z,68
2018-04-24T00:49:58.444Z,68
2018-04-24T00:50:10.907Z,68
2018-04-24T00:50:23.372Z,68
2018-04-24T00:50:35.897Z,68
2018-04-24T00:50:48.384Z,68
2018-04-24T00:51:00.802Z,68
2018-04-24T00:51:13.220Z,68
2018-04-24T00:51:25.621Z,68
2018-04-24T00:51:38.034Z,68
2018-04-24T00:51:50.428Z,68
2018-04-24T00:52:02.831Z,68
2018-04-24T00:52:15.260Z,68
2018-04-24T00:52:27.667Z,68
2018-04-24T00:52:40.071Z,68
2018-04-24T00:52:52.500Z,68
2018-04-24T00:53:04.908Z,68
2018-04-24T00:53:17.383Z,68
2018-04-24T00:53:29.816Z,68
2018-04-24T00:53:42.444Z,68
2018-04-24T00:53:54.844Z,68
2018-04-24T00:54:07.248Z,68
2018-04-24T00:54:19.636Z,68
2018-04-24T00:54:32.078Z,68
2018-04-24T00:54:44.488Z,68
2018-04-24T00:54:56.899Z,68
2018-04-24T00:55:09.393Z,68
2018-04-24T00:55:21.883Z,68
2018-04-24T00:55:34.277Z,68
2018-04-24T00:55:46.671Z,68
2018-04-24T00:55:59.091Z,68
2018-04-24T00:56:11.495Z,68
2018-04-24T00:56:23.888Z,68
2018-04-24T00:56:36.295Z,68
2018-04-24T00:56:48.768Z,68
2018-04-24T00:57:01.176Z,68
2018-04-24T00:57:13.583Z,69
2018-04-24T00:57:26.007Z,69
2018-04-24T00:57:38.424Z,69
2018-04-24T00:57:50.818Z,69
2018-04-24T00:58:03.240Z,69
2018-04-24T00:58:15.668Z,69
2018-04-24T00:58:28.066Z,69
2018-04-24T00:58:40.481Z,69
2018-04-24T00:58:52.896Z,69
2018-04-24T00:59:05.392Z,69
2018-04-24T00:59:17.805Z,69
2018-04-24T00:59:30.204Z,69
2018-04-24T00:59:42.618Z,69
2018-04-24T00:59:55.027Z,69
2018-04-24T01:00:07.677Z,69
2018-04-24T01:00:20.139Z,69
2018-04-24T01:00:32.662Z,69
2018-04-24T01:00:45.102Z,69
2018-04-24T01:00:57.521Z,69
2018-04-24T01:01:09.954Z,69
2018-04-24T01:01:22.451Z,69
2018-04-24T01:01:34.879Z,69
2018-04-24T01:01:47.287Z,69
2018-04-24T01:01:59.696Z,69
2018-04-24T01:02:12.116Z,69
2018-04-24T01:02:24.528Z,69
2018-04-24T01:02:36.949Z,69
2018-04-24T01:02:49.367Z,69
2018-04-24T01:03:01.780Z,69
2018-04-24T01:03:14.203Z,69
2018-04-24T01:03:26.635Z,69
2018-04-24T01:03:39.056Z,69
2018-04-24T01:03:51.458Z,69
2018-04-24T01:04:03.878Z,69
2018-04-24T01:04:16.278Z,69
2018-04-24T01:04:28.715Z,69
2018-04-24T01:04:41.130Z,69
2018-04-24T01:04:53.543Z,69
2018-04-24T01:05:06.104Z,69
2018-04-24T01:05:18.543Z,69
2018-04-24T01:05:30.957Z,69
2018-04-24T01:05:43.365Z,69
2018-04-24T01:05:55.770Z,69
2018-04-24T01:06:08.196Z,69
2018-04-24T01:06:20.624Z,69
2018-04-24T01:06:33.022Z,69
2018-04-24T01:06:45.744Z,69
2018-04-24T01:06:58.414Z,69
2018-04-24T01:07:10.821Z,69
2018-04-24T01:07:23.245Z,69
2018-04-24T01:07:35.647Z,69
2018-04-24T01:07:48.040Z,69
2018-04-24T01:08:00.451Z,69
2018-04-24T01:08:12.848Z,69
2018-04-24T01:08:25.248Z,69
2018-04-24T01:08:37.649Z,69
2018-04-24T01:08:50.077Z,69
2018-04-24T01:09:02.498Z,69
2018-04-24T01:09:14.926Z,69
2018-04-24T01:09:27.347Z,69
2018-04-24T01:09:39.802Z,69
2018-04-24T01:09:52.222Z,69
2018-04-24T01:10:04.681Z,69
2018-04-24T01:10:17.097Z,69
2018-04-24T01:10:29.490Z,69
2018-04-24T01:10:41.906Z,69
2018-04-24T01:10:54.316Z,69
2018-04-24T01:11:06.739Z,69
2018-04-24T01:11:19.216Z,69
2018-04-24T01:11:31.710Z,69
2018-04-24T01:11:44.163Z,69
2018-04-24T01:11:56.569Z,69
2018-04-24T01:12:08.974Z,69
2018-04-24T01:12:21.389Z,69
2018-04-24T01:12:33.800Z,69
2018-04-24T01:12:46.261Z,69
2018-04-24T01:12:58.654Z,69
2018-04-24T01:13:11.063Z,69
2018-04-24T01:13:23.471Z,69
2018-04-24T01:13:36.115Z,69
2018-04-24T01:13:48.526Z,69
2018-04-24T01:14:00.931Z,69
2018-04-24T01:14:13.344Z,69
2018-04-24T01:14:25.756Z,69
2018-04-24T01:14:38.151Z,69
2018-04-24T01:14:50.579Z,69
2018-04-24T01:15:03.002Z,69
2018-04-24T01:15:15.396Z,69
2018-04-24T01:15:27.870Z,69
2018-04-24T01:15:40.306Z,69
2018-04-24T01:15:52.719Z,69
2018-04-24T01:16:05.131Z,69
2018-04-24T01:16:17.547Z,69
2018-04-24T01:16:29.960Z,69
2018-04-24T01:16:42.372Z,69
2018-04-24T01:16:54.779Z,69
2018-04-24T01:17:07.202Z,69
2018-04-24T01:17:19.618Z,69
2018-04-24T01:17:32.015Z,69
2018-04-24T01:17:44.487Z,69
2018-04-24T01:17:56.903Z,69
2018-04-24T01:18:09.313Z,69
2018-04-24T01:18:21.767Z,69
2018-04-24T01:18:34.477Z,69
2018-04-24T01:18:46.903Z,69
2018-04-24T01:18:59.321Z,69
2018-04-24T01:19:11.845Z,69
2018-04-24T01:19:24.282Z,69
2018-04-24T01:19:36.769Z,69
2018-04-24T01:19:49.202Z,69
2018-04-24T01:20:01.597Z,69
2018-04-24T01:20:14.007Z,69
2018-04-24T01:20:26.408Z,69
2018-04-24T01:20:38.820Z,69
2018-04-24T01:20:51.242Z,69
2018-04-24T01:21:03.664Z,69
2018-04-24T01:21:16.081Z,70
2018-04-24T01:21:28.549Z,70
2018-04-24T01:21:40.960Z,70
2018-04-24T01:21:53.374Z,70
2018-04-24T01:22:05.776Z,70
2018-04-24T01:22:18.184Z,70
2018-04-24T01:22:30.764Z,70
2018-04-24T01:22:43.224Z,70
2018-04-24T01:22:55.609Z,70
2018-04-24T01:23:08.038Z,70
2018-04-24T01:23:20.427Z,70
2018-04-24T01:23:32.840Z,70
2018-04-24T01:23:45.252Z,70
2018-04-24T01:23:57.747Z,70
2018-04-24T01:24:10.168Z,70
2018-04-24T01:24:22.575Z,70
2018-04-24T01:24:34.969Z,70
2018-04-24T01:24:47.401Z,70
2018-04-24T01:24:59.807Z,70
2018-04-24T01:25:12.260Z,70
2018-04-24T01:25:24.660Z,70
2018-04-24T01:25:37.074Z,70
2018-04-24T01:25:49.488Z,70
2018-04-24T01:26:01.898Z,70
2018-04-24T01:26:14.304Z,70
2018-04-24T01:26:26.890Z,70
2018-04-24T01:26:39.288Z,70
2018-04-24T01:26:51.721Z,70
2018-04-24T01:27:04.123Z,70
2018-04-24T01:27:16.515Z,70
2018-04-24T01:27:28.913Z,70
2018-04-24T01:27:41.328Z,70
2018-04-24T01:27:53.756Z,70
2018-04-24T01:28:06.248Z,70
2018-04-24T01:28:18.665Z,70
2018-04-24T01:28:31.062Z,70
2018-04-24T01:28:43.463Z,70
2018-04-24T01:28:55.880Z,70
2018-04-24T01:29:08.268Z,70
2018-04-24T01:29:20.676Z,70
2018-04-24T01:29:33.127Z,70
2018-04-24T01:29:45.553Z,70
2018-04-24T01:29:57.975Z,70
2018-04-24T01:30:10.407Z,70
2018-04-24T01:30:22.825Z,70
2018-04-24T01:30:35.225Z,69
2018-04-24T01:30:47.933Z,69
2018-04-24T01:31:00.454Z,69
2018-04-24T01:31:12.861Z,69
2018-04-24T01:31:25.438Z,70
2018-04-24T01:31:37.844Z,70
2018-04-24T01:31:50.253Z,70
2018-04-24T01:32:02.682Z,70
2018-04-24T01:32:15.115Z,70
2018-04-24T01:32:27.516Z,70
2018-04-24T01:32:39.906Z,70
2018-04-24T01:32:52.313Z,70
2018-04-24T01:33:04.742Z,70
2018-04-24T01:33:17.154Z,70
2018-04-24T01:33:29.552Z,70
2018-04-24T01:33:41.951Z,70
2018-04-24T01:33:54.362Z,70
2018-04-24T01:34:06.800Z,70
2018-04-24T01:34:19.213Z,70
2018-04-24T01:34:31.630Z,70
2018-04-24T01:34:44.081Z,70
2018-04-24T01:34:56.492Z,70
2018-04-24T01:35:08.882Z,70
2018-04-24T01:35:21.321Z,70
2018-04-24T01:35:33.806Z,70
2018-04-24T01:35:46.233Z,70
2018-04-24T01:35:58.647Z,70
2018-04-24T01:36:11.041Z,70
2018-04-24T01:36:23.455Z,70
2018-04-24T01:36:35.896Z,70
2018-04-24T01:36:48.392Z,70
2018-04-24T01:37:00.812Z,70
2018-04-24T01:37:13.234Z,70
2018-04-24T01:37:25.657Z,70
2018-04-24T01:37:38.056Z,70
2018-04-24T01:37:50.461Z,70
2018-04-24T01:38:02.893Z,70
2018-04-24T01:38:15.401Z,70
2018-04-24T01:38:27.813Z,70
2018-04-24T01:38:40.264Z,70
2018-04-24T01:38:52.681Z,70
2018-04-24T01:39:05.081Z,69
2018-04-24T01:39:17.505Z,69
2018-04-24T01:39:29.973Z,69
2018-04-24T01:39:42.388Z,69
2018-04-24T01:39:54.793Z,70
2018-04-24T01:40:07.338Z,70
2018-04-24T01:40:19.758Z,70
2018-04-24T01:40:32.258Z,70
2018-04-24T01:40:44.689Z,70
2018-04-24T01:40:57.129Z,70
2018-04-24T01:41:09.538Z,70
2018-04-24T01:41:21.981Z,70
2018-04-24T01:41:34.408Z,70
2018-04-24T01:41:46.830Z,70
2018-04-24T01:41:59.265Z,70
2018-04-24T01:42:11.827Z,70
2018-04-24T01:42:24.253Z,70
2018-04-24T01:42:36.654Z,70
2018-04-24T01:42:49.055Z,70
2018-04-24T01:43:01.484Z,70
2018-04-24T01:43:13.919Z,70
2018-04-24T01:43:26.313Z,70
2018-04-24T01:43:38.738Z,70
2018-04-24T01:43:51.166Z,70
2018-04-24T01:44:03.574Z,70
2018-04-24T01:44:15.978Z,70
2018-04-24T01:44:28.444Z,70
2018-04-24T01:44:40.850Z,70
2018-04-24T01:44:53.239Z,70
2018-04-24T01:45:05.679Z,70
2018-04-24T01:45:18.090Z,70
2018-04-24T01:45:30.496Z,70
2018-04-24T01:45:43.036Z,70
2018-04-24T01:45:55.442Z,70
2018-04-24T01:46:07.935Z,70
2018-04-24T01:46:20.336Z,70
2018-04-24T01:46:32.740Z,70
2018-04-24T01:46:45.174Z,70
2018-04-24T01:46:57.582Z,70
2018-04-24T01:47:10.044Z,70
2018-04-24T01:47:22.425Z,70
2018-04-24T01:47:34.812Z,70
2018-04-24T01:47:47.230Z,70
2018-04-24T01:47:59.643Z,70
2018-04-24T01:48:12.235Z,70
2018-04-24T01:48:24.658Z,70
2018-04-24T01:48:37.083Z,71
2018-04-24T01:48:49.484Z,71
2018-04-24T01:49:01.915Z,71
2018-04-24T01:49:14.323Z,71
2018-04-24T01:49:26.728Z,70
2018-04-24T01:49:39.151Z,70
2018-04-24T01:49:51.825Z,70
2018-04-24T01:50:04.426Z,70
2018-04-24T01:50:16.952Z,71
2018-04-24T01:50:29.367Z,71
2018-04-24T01:50:41.899Z,71
2018-04-24T01:50:54.297Z,71
2018-04-24T01:51:06.702Z,71
2018-04-24T01:51:19.120Z,71
2018-04-24T01:51:31.567Z,71
2018-04-24T01:51:43.957Z,71
2018-04-24T01:51:56.365Z,71
2018-04-24T01:52:08.786Z,71
2018-04-24T01:52:21.248Z,71
2018-04-24T01:52:33.663Z,71
2018-04-24T01:52:46.074Z,71
2018-04-24T01:52:58.496Z,71
2018-04-24T01:53:10.916Z,71
2018-04-24T01:53:23.314Z,71
2018-04-24T01:53:35.789Z,71
2018-04-24T01:53:48.310Z,71
2018-04-24T01:54:00.775Z,71
2018-04-24T01:54:13.200Z,71
2018-04-24T01:54:25.615Z,71
2018-04-24T01:54:38.026Z,71
2018-04-24T01:54:50.494Z,71
2018-04-24T01:55:02.905Z,71
2018-04-24T01:55:15.305Z,71
2018-04-24T01:55:27.707Z,71
2018-04-24T01:55:40.267Z,71
2018-04-24T01:55:52.756Z,71
2018-04-24T01:56:05.183Z,71
2018-04-24T01:56:17.590Z,71
2018-04-24T01:56:29.997Z,71
2018-04-24T01:56:42.419Z,71
2018-04-24T01:56:54.820Z,71
2018-04-24T01:57:07.229Z,71
2018-04-24T01:57:19.760Z,71
2018-04-24T01:57:32.159Z,71
2018-04-24T01:57:44.579Z,71
2018-04-24T01:57:56.989Z,71
2018-04-24T01:58:09.405Z,71
2018-04-24T01:58:21.806Z,71
2018-04-24T01:58:34.304Z,71
2018-04-24T01:58:46.701Z,71
2018-04-24T01:58:59.136Z,71
2018-04-24T01:59:11.574Z,71
2018-04-24T01:59:24.062Z,71
2018-04-24T01:59:36.469Z,71
2018-04-24T01:59:48.874Z,71
2018-04-24T02:00:01.288Z,71
2018-04-24T02:00:13.738Z,71
2018-04-24T02:00:26.161Z,71
2018-04-24T02:00:38.619Z,71
2018-04-24T02:00:51.053Z,71
2018-04-24T02:01:03.502Z,71
2018-04-24T02:01:15.911Z,71
2018-04-24T02:01:28.352Z,71
2018-04-24T02:01:40.815Z,71
2018-04-24T02:01:53.232Z,71
2018-04-24T02:02:05.651Z,71
2018-04-24T02:02:18.080Z,71
2018-04-24T02:02:30.483Z,71
2018-04-24T02:02:42.919Z,71
2018-04-24T02:02:55.335Z,71
2018-04-24T02:03:07.763Z,71
2018-04-24T02:03:20.192Z,71
2018-04-24T02:03:32.605Z,71
2018-04-24T02:03:45.018Z,71
2018-04-24T02:03:57.444Z,71
2018-04-24T02:04:09.924Z,71
2018-04-24T02:04:22.344Z,71
2018-04-24T02:04:34.759Z,71
2018-04-24T02:04:47.263Z,71
2018-04-24T02:04:59.781Z,71
2018-04-24T02:05:12.211Z,71
2018-04-24T02:05:24.625Z,71
2018-04-24T02:05:37.075Z,71
2018-04-24T02:05:49.485Z,71
2018-04-24T02:06:01.891Z,71
2018-04-24T02:06:14.315Z,71
2018-04-24T02:06:26.752Z,71
2018-04-24T02:06:39.217Z,71
2018-04-24T02:06:51.646Z,71
2018-04-24T02:07:04.045Z,71
2018-04-24T02:07:16.450Z,71
2018-04-24T02:07:28.865Z,71
2018-04-24T02:07:41.302Z,71
2018-04-24T02:07:53.718Z,71
2018-04-24T02:08:06.123Z,71
2018-04-24T02:08:18.616Z,71
2018-04-24T02:08:31.034Z,71
2018-04-24T02:08:43.444Z,71
2018-04-24T02:08:55.862Z,71
2018-04-24T02:09:08.274Z,72
2018-04-24T02:09:20.682Z,72
2018-04-24T02:09:33.079Z,72
2018-04-24T02:09:45.506Z,72
2018-04-24T02:09:57.915Z,72
2018-04-24T02:10:10.331Z,72
2018-04-24T02:10:22.731Z,72
2018-04-24T02:10:35.216Z,72
2018-04-24T02:10:47.635Z,72
2018-04-24T02:11:00.067Z,72
2018-04-24T02:11:12.473Z,72
2018-04-24T02:11:24.887Z,72
2018-04-24T02:11:37.290Z,72
2018-04-24T02:11:49.697Z,72
2018-04-24T02:12:02.105Z,72
2018-04-24T02:12:14.532Z,72
2018-04-24T02:12:26.932Z,72
2018-04-24T02:12:39.330Z,72
2018-04-24T02:12:51.740Z,72
2018-04-24T02:13:04.133Z,72
2018-04-24T02:13:16.539Z,72
2018-04-24T02:13:28.953Z,72
2018-04-24T02:13:41.663Z,72
2018-04-24T02:13:54.081Z,72
2018-04-24T02:14:06.547Z,72
2018-04-24T02:14:18.967Z,72
2018-04-24T02:14:31.597Z,72
2018-04-24T02:14:44.005Z,72
2018-04-24T02:14:56.424Z,72
2018-04-24T02:15:08.866Z,72
2018-04-24T02:15:21.288Z,72
2018-04-24T02:15:33.715Z,72
2018-04-24T02:15:46.138Z,72
2018-04-24T02:15:58.539Z,72
2018-04-24T02:16:10.961Z,72
2018-04-24T02:16:23.384Z,72
2018-04-24T02:16:35.820Z,72
2018-04-24T02:16:48.230Z,72
2018-04-24T02:17:00.623Z,72
2018-04-24T02:17:13.035Z,72
2018-04-24T02:17:25.716Z,72
2018-04-24T02:17:38.184Z,72
2018-04-24T02:17:50.590Z,72
2018-04-24T02:18:02.999Z,72
2018-04-24T02:18:15.403Z,72
2018-04-24T02:18:28.079Z,72
2018-04-24T02:18:40.503Z,72
2018-04-24T02:18:52.920Z,72
2018-04-24T02:19:05.393Z,72
2018-04-24T02:19:17.812Z,72
2018-04-24T02:19:30.232Z,72
2018-04-24T02:19:42.729Z,72
2018-04-24T02:19:55.139Z,72
2018-04-24T02:20:07.609Z,72
2018-04-24T02:20:20.024Z,72
2018-04-24T02:20:32.481Z,72
2018-04-24T02:20:44.903Z,72
2018-04-24T02:20:57.384Z,72
2018-04-24T02:21:09.778Z,72
2018-04-24T02:21:22.176Z,72
2018-04-24T02:21:34.681Z,72
2018-04-24T02:21:47.095Z,72
2018-04-24T02:21:59.518Z,72
2018-04-24T02:22:11.945Z,72
2018-04-24T02:22:24.357Z,72
2018-04-24T02:22:37.148Z,72
2018-04-24T02:22:49.884Z,72
2018-04-24T02:23:02.280Z,72
2018-04-24T02:23:14.690Z,72
2018-04-24T02:23:27.257Z,72
2018-04-24T02:23:39.667Z,72
2018-04-24T02:23:52.100Z,72
2018-04-24T02:24:04.503Z,72
2018-04-24T02:24:16.902Z,72
2018-04-24T02:24:29.314Z,72
2018-04-24T02:24:41.785Z,72
2018-04-24T02:24:54.402Z,72
2018-04-24T02:25:07.444Z,72
2018-04-24T02:25:19.858Z,72
2018-04-24T02:25:32.312Z,72
2018-04-24T02:25:44.736Z,72
2018-04-24T02:25:57.155Z,72
2018-04-24T02:26:09.574Z,72
2018-04-24T02:26:21.983Z,72
2018-04-24T02:26:34.450Z,72
2018-04-24T02:26:46.876Z,72
2018-04-24T02:26:59.304Z,72
2018-04-24T02:27:11.790Z,72
2018-04-24T02:27:24.203Z,72
2018-04-24T02:27:36.678Z,72
2018-04-24T02:27:49.096Z,72
2018-04-24T02:28:01.523Z,72
2018-04-24T02:28:13.916Z,72
2018-04-24T02:28:26.323Z,72
2018-04-24T02:28:38.760Z,72
2018-04-24T02:28:51.186Z,72
2018-04-24T02:29:03.586Z,72
2018-04-24T02:29:16.056Z,72
2018-04-24T02:29:28.462Z,72
2018-04-24T02:29:41.327Z,72
2018-04-24T02:29:53.773Z,72
2018-04-24T02:30:06.191Z,72
2018-04-24T02:30:18.636Z,72
2018-04-24T02:30:31.054Z,72
2018-04-24T02:30:43.522Z,72
2018-04-24T02:30:56.227Z,72
2018-04-24T02:31:08.668Z,72
2018-04-24T02:31:21.106Z,72
2018-04-24T02:31:33.531Z,72
2018-04-24T02:31:45.974Z,72
2018-04-24T02:31:58.407Z,72
2018-04-24T02:32:10.839Z,72
2018-04-24T02:32:23.369Z,72
2018-04-24T02:32:35.787Z,72
2018-04-24T02:32:48.266Z,72
2018-04-24T02:33:00.689Z,72
2018-04-24T02:33:13.148Z,72
2018-04-24T02:33:25.557Z,72
2018-04-24T02:33:37.995Z,72
2018-04-24T02:33:50.411Z,72
2018-04-24T02:34:02.869Z,72
2018-04-24T02:34:15.335Z,72
2018-04-24T02:34:27.826Z,72
2018-04-24T02:34:40.271Z,72
2018-04-24T02:34:52.706Z,72
2018-04-24T02:35:05.144Z,72
2018-04-24T02:35:17.562Z,72
2018-04-24T02:35:29.995Z,72
2018-04-24T02:35:42.446Z,72
2018-04-24T02:35:54.914Z,72
2018-04-24T02:36:07.349Z,72
2018-04-24T02:36:19.789Z,72
2018-04-24T02:36:32.215Z,72
2018-04-24T02:36:44.647Z,72
2018-04-24T02:36:57.574Z,72
2018-04-24T02:37:10.003Z,72
2018-04-24T02:37:22.420Z,72
2018-04-24T02:37:34.963Z,72
2018-04-24T02:37:47.400Z,72
2018-04-24T02:37:59.849Z,72
2018-04-24T02:38:12.252Z,71
2018-04-24T02:38:24.686Z,71
2018-04-24T02:38:37.213Z,71
2018-04-24T02:38:49.674Z,71
2018-04-24T02:39:02.082Z,71
2018-04-24T02:39:14.558Z,71
2018-04-24T02:39:27.008Z,71
2018-04-24T02:39:39.483Z,71
2018-04-24T02:39:52.157Z,71
2018-04-24T02:40:04.710Z,71
2018-04-24T02:40:17.341Z,71
2018-04-24T02:40:31.102Z,71
2018-04-24T02:40:43.580Z,71
2018-04-24T02:40:56.005Z,71
2018-04-24T02:41:08.429Z,71
2018-04-24T02:41:20.853Z,71
2018-04-24T02:41:33.295Z,71
2018-04-24T02:41:45.740Z,71
2018-04-24T02:41:58.194Z,71
2018-04-24T02:42:10.675Z,71
2018-04-24T02:42:23.254Z,71
2018-04-24T02:42:35.669Z,71
2018-04-24T02:42:48.106Z,71
2018-04-24T02:43:00.609Z,71
2018-04-24T02:43:13.099Z,71
2018-04-24T02:43:25.502Z,71
2018-04-24T02:43:37.934Z,71
2018-04-24T02:43:50.452Z,71
2018-04-24T02:44:02.889Z,71
2018-04-24T02:44:15.302Z,71
2018-04-24T02:44:27.808Z,71
2018-04-24T02:44:40.316Z,71
2018-04-24T02:44:52.760Z,71
2018-04-24T02:45:05.201Z,71
2018-04-24T02:45:17.723Z,71
2018-04-24T02:45:30.146Z,71
2018-04-24T02:45:42.707Z,71
2018-04-24T02:45:55.159Z,71
2018-04-24T02:46:07.609Z,71
2018-04-24T02:46:20.036Z,71
2018-04-24T02:46:32.445Z,71
2018-04-24T02:46:44.878Z,71
2018-04-24T02:46:57.391Z,71
2018-04-24T02:47:09.819Z,71
2018-04-24T02:47:22.281Z,71
2018-04-24T02:47:34.718Z,71
2018-04-24T02:47:47.144Z,71
2018-04-24T02:47:59.556Z,71
2018-04-24T02:48:12.232Z,71
2018-04-24T02:48:24.689Z,71
2018-04-24T02:48:37.100Z,71
2018-04-24T02:48:49.582Z,71
2018-04-24T02:49:02.022Z,71
2018-04-24T02:49:14.438Z,71
2018-04-24T02:49:26.855Z,71
2018-04-24T02:49:39.288Z,71
2018-04-24T02:49:51.709Z,71
2018-04-24T02:50:04.336Z,71
2018-04-24T02:50:16.801Z,71
2018-04-24T02:50:29.251Z,71
2018-04-24T02:50:41.896Z,71
2018-04-24T02:50:54.323Z,71
2018-04-24T02:51:06.747Z,71
2018-04-24T02:51:19.166Z,71
2018-04-24T02:51:31.596Z,71
2018-04-24T02:51:44.015Z,71
2018-04-24T02:51:56.459Z,71
2018-04-24T02:52:08.913Z,71
2018-04-24T02:52:21.361Z,71
2018-04-24T02:52:33.799Z,71
2018-04-24T02:52:46.217Z,71
2018-04-24T02:52:58.645Z,71
2018-04-24T02:53:11.100Z,71
2018-04-24T02:53:23.562Z,71
2018-04-24T02:53:35.977Z,71
2018-04-24T02:53:48.387Z,71
2018-04-24T02:54:00.812Z,71
2018-04-24T02:54:13.236Z,71
2018-04-24T02:54:25.652Z,71
2018-04-24T02:54:38.076Z,71
2018-04-24T02:54:50.531Z,71
2018-04-24T02:55:03.112Z,71
2018-04-24T02:55:15.564Z,72
2018-04-24T02:55:27.987Z,72
2018-04-24T02:55:40.395Z,72
2018-04-24T02:55:52.823Z,72
2018-04-24T02:56:05.254Z,72
2018-04-24T02:56:17.689Z,72
2018-04-24T02:56:30.220Z,72
2018-04-24T02:56:42.762Z,72
2018-04-24T02:56:55.172Z,72
2018-04-24T02:57:07.588Z,72
2018-04-24T02:57:20.008Z,72
2018-04-24T02:57:32.436Z,72